Etusivu
METAR-TAF:

METAR-TAF

Lentoasemat :

Williamson County Regional Airport

Marion, Illinois, Yhdysvallat

Leveyspiiri: 37-45-01N, Pituuspiiri: 089-00-04W, korkeus merenpinnasta: 144 m

Tämänhetkinen sää

Tämä raportti tehtiin 35 minuuttia sitten, kello 16.55 UTC
Tuuli 15 kn lounaasta
Lämpötila 6°C
Kosteus 33%
Ilmanpaine 1030 hPa
Näkyvyys: 32.2 km
selkeää

METAR: KMWA 221655Z 23015KT 20SM SKC 06/M09 A3042

Aika: 11:30 (17:30 UTC)


TAF: puuttuu

Säähavainnot ja -ennusteet yli 4000 lentoasemalta (METAR- ja TAF-raportit).

Käytössä olevat sääasemat on merkitty karttaan keltaisilla ja punaisilla pisteillä.

Aseta hiiri pisteen päälle nähdäksesi sääaseman nimen.

Klikkaa sitten nähdäksesi säähavainnot ja -ennusteet.

Kartan vaihtaminen: klikkaa mustalla rastilla varustettuja vihreitä pisteitä, niin voit zoomata sisään; viivalla varustettua vihreää pistettä, niin voit zoomata ulos tai vihreitä nuolia, niin pääset viereisille kartoille.


METAR-TAF: